createdAt,value
2022-12-20T00:01:03.010Z,4.18
2022-12-20T00:03:35.955Z,4.65
2022-12-20T00:06:06.514Z,4.80
2022-12-20T00:08:39.000Z,4.00
2022-12-20T00:11:11.747Z,4.13
2022-12-20T00:13:42.471Z,3.42
2022-12-20T00:16:15.977Z,4.80
2022-12-20T00:18:49.791Z,5.75
2022-12-20T00:21:20.354Z,5.13
2022-12-20T00:23:50.845Z,5.22
2022-12-20T00:26:23.737Z,5.18
2022-12-20T00:28:59.648Z,6.50
2022-12-20T00:31:33.555Z,4.85
2022-12-20T00:34:07.411Z,3.95
2022-12-20T00:36:42.961Z,5.57
2022-12-20T00:39:15.775Z,4.88
2022-12-20T00:41:46.410Z,4.32
2022-12-20T00:44:17.616Z,4.63
2022-12-20T00:46:48.325Z,3.70
2022-12-20T00:49:21.732Z,4.13
2022-12-20T00:51:52.599Z,4.60
2022-12-20T00:54:23.217Z,4.55
2022-12-20T00:56:53.883Z,4.13
2022-12-20T00:59:25.782Z,3.35
2022-12-20T01:01:56.476Z,4.80
2022-12-20T01:04:29.629Z,4.30
2022-12-20T01:07:00.265Z,5.85
2022-12-20T01:09:31.319Z,4.97
2022-12-20T01:12:01.967Z,4.57
2022-12-20T01:14:32.523Z,4.03
2022-12-20T01:17:03.227Z,3.60
2022-12-20T01:19:36.911Z,3.55
2022-12-20T01:22:07.348Z,3.08
2022-12-20T01:24:37.839Z,3.78
2022-12-20T01:27:08.819Z,3.65
2022-12-20T01:29:39.723Z,3.83
2022-12-20T01:32:10.314Z,3.70
2022-12-20T01:34:43.873Z,4.18
2022-12-20T01:37:14.417Z,3.35
2022-12-20T01:39:45.205Z,2.95
2022-12-20T01:42:19.568Z,3.35
2022-12-20T01:47:30.157Z,4.07
2022-12-20T01:50:05.307Z,4.60
2022-12-20T01:52:39.979Z,3.63
2022-12-20T01:55:15.484Z,2.80
2022-12-20T01:57:51.820Z,3.50
2022-12-20T02:00:23.165Z,4.00
2022-12-20T02:02:54.423Z,3.05
2022-12-20T02:05:27.865Z,2.88
2022-12-20T02:08:00.115Z,3.90
2022-12-20T02:10:38.287Z,2.45
2022-12-20T02:13:15.635Z,2.28
2022-12-20T02:15:54.222Z,3.53
2022-12-20T02:18:28.443Z,1.77
2022-12-20T02:21:29.067Z,2.53
2022-12-20T02:24:24.523Z,5.63
2022-12-20T02:27:21.669Z,4.50
2022-12-20T02:30:07.253Z,3.17
2022-12-20T02:32:42.171Z,3.15
2022-12-20T02:35:15.712Z,2.33
2022-12-20T02:37:53.867Z,2.88
2022-12-20T02:40:28.569Z,4.68
2022-12-20T02:43:03.462Z,2.67
2022-12-20T02:45:37.743Z,4.22
2022-12-20T02:50:47.785Z,4.32
2022-12-20T02:53:19.482Z,2.88
2022-12-20T02:55:57.628Z,4.05
2022-12-20T02:58:33.995Z,3.63
2022-12-20T03:01:14.429Z,5.35
2022-12-20T03:03:45.460Z,3.22
2022-12-20T03:06:16.184Z,3.97
2022-12-20T03:08:47.353Z,4.53
2022-12-20T03:11:18.179Z,4.85
2022-12-20T03:13:49.020Z,3.92
2022-12-20T03:16:22.301Z,4.70
2022-12-20T03:18:52.925Z,4.03
2022-12-20T03:21:23.616Z,5.13
2022-12-20T03:23:54.078Z,3.50
2022-12-20T03:26:26.726Z,4.07
2022-12-20T03:29:01.553Z,5.50
2022-12-20T03:31:35.303Z,5.30
2022-12-20T03:34:08.137Z,5.32
2022-12-20T03:36:40.425Z,6.30
2022-12-20T03:39:10.897Z,6.22
2022-12-20T03:41:42.944Z,6.88
2022-12-20T03:44:15.473Z,5.85
2022-12-20T03:46:48.966Z,7.10
2022-12-20T03:49:19.893Z,7.05
2022-12-20T03:51:53.908Z,9.02
2022-12-20T03:54:24.645Z,6.30
2022-12-20T03:57:14.991Z,6.45
2022-12-20T03:59:46.262Z,5.25
2022-12-20T04:02:22.931Z,5.97
2022-12-20T04:04:53.766Z,6.32
2022-12-20T04:07:24.893Z,4.90
2022-12-20T04:09:55.488Z,6.55
2022-12-20T04:12:26.132Z,7.28
2022-12-20T04:14:56.732Z,6.97
2022-12-20T04:17:29.908Z,5.57
2022-12-20T04:20:18.992Z,7.07
2022-12-20T04:22:54.854Z,5.10
2022-12-20T04:25:25.399Z,4.70
2022-12-20T04:27:59.281Z,4.80
2022-12-20T04:30:30.023Z,5.05
2022-12-20T04:33:04.538Z,5.25
2022-12-20T04:35:35.420Z,5.65
2022-12-20T04:38:06.591Z,7.18
2022-12-20T04:40:37.258Z,5.28
2022-12-20T04:43:10.316Z,5.47
2022-12-20T04:45:40.819Z,5.35
2022-12-20T04:48:45.941Z,6.32
2022-12-20T04:51:04.688Z,7.53
2022-12-20T04:53:48.063Z,6.15
2022-12-20T04:56:31.476Z,6.60
2022-12-20T04:59:08.788Z,6.32
2022-12-20T05:01:39.982Z,5.80
2022-12-20T05:04:13.155Z,5.72
2022-12-20T05:06:43.653Z,5.82
2022-12-20T05:09:14.327Z,4.68
2022-12-20T05:11:44.929Z,5.32
2022-12-20T05:14:15.976Z,5.22
2022-12-20T05:16:46.519Z,6.53
2022-12-20T05:19:19.545Z,5.90
2022-12-20T05:22:02.365Z,3.65
2022-12-20T05:24:46.430Z,4.70
2022-12-20T05:27:25.532Z,5.55
2022-12-20T05:29:56.159Z,5.45
2022-12-20T05:32:27.308Z,7.05
2022-12-20T05:35:01.254Z,6.75
2022-12-20T05:37:32.803Z,3.47
2022-12-20T05:40:12.155Z,4.53
2022-12-20T05:42:44.785Z,4.40
2022-12-20T05:45:15.392Z,6.60
2022-12-20T05:47:57.021Z,4.93
2022-12-20T05:50:30.245Z,7.32
2022-12-20T05:53:29.835Z,4.72
2022-12-20T05:56:04.273Z,7.72
2022-12-20T05:58:38.803Z,5.30
2022-12-20T06:01:11.270Z,5.47
2022-12-20T06:03:43.353Z,5.63
2022-12-20T06:06:20.363Z,4.30
2022-12-20T06:08:51.840Z,4.38
2022-12-20T06:11:35.292Z,7.18
2022-12-20T06:14:12.288Z,6.85
2022-12-20T06:16:48.083Z,6.22
2022-12-20T06:19:21.811Z,7.30
2022-12-20T06:21:58.469Z,5.45
2022-12-20T06:24:36.417Z,7.35
2022-12-20T06:27:07.484Z,8.00
2022-12-20T06:29:38.053Z,8.48
2022-12-20T06:32:12.918Z,7.07
2022-12-20T06:34:43.904Z,6.85
2022-12-20T06:37:17.904Z,6.55
2022-12-20T06:39:48.658Z,5.83
2022-12-20T06:42:19.222Z,5.43
2022-12-20T06:44:50.880Z,5.35
2022-12-20T06:47:21.444Z,6.95
2022-12-20T06:49:52.003Z,12.43
2022-12-20T06:52:32.742Z,6.80
2022-12-20T06:55:03.276Z,6.97
2022-12-20T07:00:10.639Z,5.18
2022-12-20T07:02:41.193Z,4.72
2022-12-20T07:05:12.253Z,5.70
2022-12-20T07:07:45.688Z,5.60
2022-12-20T07:10:16.485Z,6.20
2022-12-20T07:15:37.240Z,4.18
2022-12-20T07:18:08.133Z,4.75
2022-12-20T07:20:39.153Z,4.05
2022-12-20T07:23:12.195Z,2.90
2022-12-20T07:25:42.586Z,2.83
2022-12-20T07:28:13.982Z,4.88
2022-12-20T07:30:44.487Z,4.57
2022-12-20T07:33:14.868Z,8.18
2022-12-20T07:35:49.529Z,5.50
2022-12-20T07:38:27.479Z,3.08
2022-12-20T07:40:57.819Z,3.50
2022-12-20T07:43:28.221Z,4.38
2022-12-20T07:46:00.398Z,3.55
2022-12-20T07:48:30.922Z,3.83
2022-12-20T07:51:05.380Z,3.85
2022-12-20T07:53:42.906Z,2.65
2022-12-20T07:56:15.453Z,3.63
2022-12-20T07:58:46.923Z,3.63
2022-12-20T08:01:17.641Z,4.10
2022-12-20T08:03:52.438Z,5.63
2022-12-20T08:06:23.832Z,5.68
2022-12-20T08:09:01.225Z,4.72
2022-12-20T08:11:33.693Z,5.40
2022-12-20T08:14:04.833Z,5.20
2022-12-20T08:16:35.547Z,8.32
2022-12-20T08:19:06.273Z,4.03
2022-12-20T08:21:36.711Z,4.57
2022-12-20T08:24:10.340Z,4.72
2022-12-20T08:26:41.817Z,5.85
2022-12-20T08:29:12.414Z,4.47
2022-12-20T08:31:49.795Z,4.68
2022-12-20T08:34:21.051Z,7.70
2022-12-20T08:36:51.571Z,5.78
2022-12-20T08:39:24.628Z,5.35
2022-12-20T08:41:55.105Z,3.83
2022-12-20T08:44:25.755Z,3.25
2022-12-20T08:46:56.336Z,6.40
2022-12-20T08:49:26.763Z,3.83
2022-12-20T08:51:57.293Z,4.13
2022-12-20T08:54:30.471Z,4.80
2022-12-20T08:57:00.888Z,6.80
2022-12-20T08:59:31.459Z,3.90
2022-12-20T09:02:02.015Z,3.83
2022-12-20T09:04:32.694Z,5.90
2022-12-20T09:07:03.205Z,5.60
2022-12-20T09:09:36.470Z,3.75
2022-12-20T09:12:07.830Z,6.23
2022-12-20T09:14:38.283Z,5.78
2022-12-20T09:17:08.725Z,3.15
2022-12-20T09:19:39.245Z,3.00
2022-12-20T09:22:09.816Z,5.13
2022-12-20T09:24:43.284Z,4.25
2022-12-20T09:27:13.762Z,3.42
2022-12-20T09:29:44.273Z,4.55
2022-12-20T09:32:15.340Z,5.38
2022-12-20T09:34:45.704Z,2.83
2022-12-20T09:37:16.438Z,3.42
2022-12-20T09:39:52.863Z,3.83
2022-12-20T09:42:27.485Z,3.65
2022-12-20T09:45:06.130Z,2.90
2022-12-20T09:47:39.251Z,3.38
2022-12-20T09:50:10.858Z,3.97
2022-12-20T09:52:55.000Z,3.42
2022-12-20T09:55:37.304Z,4.20
2022-12-20T09:58:31.917Z,3.83
2022-12-20T10:01:14.628Z,5.18
2022-12-20T10:03:46.264Z,4.20
2022-12-20T10:06:29.344Z,4.65
2022-12-20T10:09:02.224Z,6.57
2022-12-20T10:12:00.917Z,5.38
2022-12-20T10:14:45.007Z,4.25
2022-12-20T10:17:20.070Z,5.45
2022-12-20T10:20:11.385Z,3.80
2022-12-20T10:22:49.197Z,3.65
2022-12-20T10:25:22.976Z,5.60
2022-12-20T10:27:59.996Z,3.60
2022-12-20T10:30:31.300Z,3.33
2022-12-20T10:33:02.853Z,3.28
2022-12-20T10:35:36.858Z,3.38
2022-12-20T10:38:12.488Z,3.28
2022-12-20T10:43:48.034Z,3.03
2022-12-20T10:46:19.510Z,2.53
2022-12-20T10:48:51.024Z,2.47
2022-12-20T10:51:22.893Z,2.47
2022-12-20T10:53:59.099Z,3.70
2022-12-20T10:56:31.857Z,3.15
2022-12-20T10:59:25.718Z,3.08
2022-12-20T11:01:56.287Z,2.72
2022-12-20T11:04:30.708Z,3.25
2022-12-20T11:07:03.467Z,2.30
2022-12-20T11:09:35.825Z,3.50
2022-12-20T11:12:09.590Z,2.60
2022-12-20T11:14:43.727Z,2.25
2022-12-20T11:17:27.768Z,3.67
2022-12-20T11:20:14.502Z,2.60
2022-12-20T11:22:53.920Z,3.08
2022-12-20T11:25:37.837Z,3.15
2022-12-20T11:28:23.655Z,2.05
2022-12-20T11:31:07.371Z,2.17
2022-12-20T11:33:53.020Z,1.43
2022-12-20T11:36:35.441Z,3.22
2022-12-20T11:39:15.774Z,2.45
2022-12-20T11:41:52.359Z,2.08
2022-12-20T11:44:32.256Z,2.22
2022-12-20T11:47:31.345Z,1.98
2022-12-20T11:50:17.035Z,2.60
2022-12-20T11:52:54.335Z,1.40
2022-12-20T11:55:29.952Z,2.17
2022-12-20T11:58:21.217Z,1.90
2022-12-20T12:00:58.336Z,1.90
2022-12-20T12:03:37.804Z,1.33
2022-12-20T12:06:13.276Z,1.80
2022-12-20T12:08:50.128Z,2.90
2022-12-20T12:12:04.712Z,1.77
2022-12-20T12:14:25.971Z,2.28
2022-12-20T12:17:01.770Z,1.60
2022-12-20T12:19:37.835Z,1.80
2022-12-20T12:22:16.054Z,1.40
2022-12-20T12:24:51.770Z,1.92
2022-12-20T12:27:26.316Z,1.38
2022-12-20T12:29:58.802Z,2.15
2022-12-20T12:32:35.378Z,1.25
2022-12-20T12:35:32.584Z,2.03
2022-12-20T12:38:18.942Z,1.25
2022-12-20T12:41:03.563Z,2.20
2022-12-20T12:46:29.457Z,1.20
2022-12-20T12:49:03.858Z,1.17
2022-12-20T12:51:39.807Z,2.75
2022-12-20T12:54:22.292Z,2.03
2022-12-20T12:56:55.713Z,1.67
2022-12-20T12:59:46.235Z,1.95
2022-12-20T13:02:38.657Z,1.90
2022-12-20T13:05:34.882Z,2.03
2022-12-20T13:08:19.000Z,1.58
2022-12-20T13:11:04.725Z,2.05
2022-12-20T13:13:38.639Z,1.70
2022-12-20T13:16:15.767Z,1.70
2022-12-20T13:19:05.239Z,3.28
2022-12-20T13:21:40.918Z,2.38
2022-12-20T13:24:35.191Z,2.85
2022-12-20T13:27:20.991Z,1.40
2022-12-20T13:30:00.336Z,1.50
2022-12-20T13:33:15.647Z,2.92
2022-12-20T13:36:05.159Z,3.60
2022-12-20T13:38:42.176Z,5.57
2022-12-20T13:41:22.231Z,2.05
2022-12-20T13:43:58.975Z,2.03
2022-12-20T13:46:37.989Z,1.70
2022-12-20T13:49:13.351Z,1.75
2022-12-20T13:51:45.946Z,1.92
2022-12-20T13:54:26.856Z,1.90
2022-12-20T13:56:59.527Z,1.52
2022-12-20T13:59:35.460Z,1.88
2022-12-20T14:02:14.412Z,1.60
2022-12-20T14:04:47.291Z,0.98
2022-12-20T14:07:20.498Z,1.35
2022-12-20T14:09:59.487Z,1.00
2022-12-20T14:12:36.496Z,1.67
2022-12-20T14:15:25.033Z,0.82
2022-12-20T14:17:57.932Z,1.45
2022-12-20T14:20:34.125Z,1.13
2022-12-20T14:23:08.209Z,1.67
2022-12-20T14:25:43.577Z,1.35
2022-12-20T14:28:27.392Z,1.35
2022-12-20T14:31:03.435Z,1.15
2022-12-20T14:33:38.595Z,1.08
2022-12-20T14:36:20.586Z,1.60
2022-12-20T14:38:52.985Z,1.45
2022-12-20T14:41:36.103Z,1.20
2022-12-20T14:44:18.891Z,1.13
2022-12-20T14:46:57.054Z,1.50
2022-12-20T14:49:30.464Z,1.08
2022-12-20T14:52:18.577Z,1.10
2022-12-20T14:55:10.051Z,1.00
2022-12-20T14:57:48.740Z,2.28
2022-12-20T15:00:25.389Z,2.50
2022-12-20T15:03:05.149Z,2.53
2022-12-20T15:05:53.478Z,1.33
2022-12-20T15:08:27.617Z,1.63
2022-12-20T15:11:04.057Z,1.20
2022-12-20T15:13:36.005Z,1.30
2022-12-20T15:16:08.756Z,1.30
2022-12-20T15:18:42.137Z,1.52
2022-12-20T15:21:19.905Z,2.87
2022-12-20T15:23:52.564Z,1.58
2022-12-20T15:26:26.869Z,3.45
2022-12-20T15:28:58.415Z,2.88
2022-12-20T15:31:34.079Z,2.00
2022-12-20T15:34:13.974Z,1.45
2022-12-20T15:36:44.653Z,3.53
2022-12-20T15:39:15.940Z,4.30
2022-12-20T15:41:48.954Z,3.08
2022-12-20T15:44:22.848Z,4.45
2022-12-20T15:46:54.162Z,3.08
2022-12-20T15:49:30.451Z,3.33
2022-12-20T15:52:01.619Z,5.50
2022-12-20T15:54:33.925Z,2.30
2022-12-20T15:57:07.608Z,2.55
2022-12-20T16:02:32.741Z,2.63
2022-12-20T16:05:06.498Z,2.17
2022-12-20T16:07:37.799Z,3.03
2022-12-20T16:10:10.144Z,3.63
2022-12-20T16:12:41.581Z,2.85
2022-12-20T16:15:22.666Z,2.15
2022-12-20T16:17:53.171Z,2.30
2022-12-20T16:20:27.677Z,3.28
2022-12-20T16:22:58.439Z,2.13
2022-12-20T16:25:31.927Z,1.55
2022-12-20T16:28:02.489Z,3.35
2022-12-20T16:30:33.181Z,1.50
2022-12-20T16:33:03.837Z,2.55
2022-12-20T16:35:39.292Z,1.85
2022-12-20T16:38:09.890Z,3.78
2022-12-20T16:40:40.961Z,1.98
2022-12-20T16:43:17.782Z,3.08
2022-12-20T16:45:48.342Z,2.33
2022-12-20T16:48:18.989Z,1.80
2022-12-20T16:50:52.388Z,2.67
2022-12-20T16:53:22.879Z,1.60
2022-12-20T16:55:53.483Z,1.60
2022-12-20T16:58:44.889Z,1.65
2022-12-20T17:01:18.009Z,2.63
2022-12-20T17:03:49.116Z,1.60
2022-12-20T17:06:22.444Z,2.88
2022-12-20T17:11:37.603Z,3.40
2022-12-20T17:14:12.550Z,2.15
2022-12-20T17:16:43.810Z,4.25
2022-12-20T17:19:14.234Z,2.58
2022-12-20T17:24:34.725Z,3.03
2022-12-20T17:27:05.733Z,4.90
2022-12-20T17:29:36.282Z,1.92
2022-12-20T17:32:21.315Z,4.28
2022-12-20T17:34:52.596Z,5.47
2022-12-20T17:37:25.668Z,2.95
2022-12-20T17:39:55.974Z,3.33
2022-12-20T17:42:31.224Z,3.22
2022-12-20T17:45:02.284Z,3.03
2022-12-20T17:47:33.762Z,2.13
2022-12-20T17:50:04.236Z,7.47
2022-12-20T17:52:37.444Z,2.53
2022-12-20T17:55:09.448Z,2.28
2022-12-20T17:57:40.013Z,2.33
2022-12-20T18:00:18.213Z,2.80
2022-12-20T18:02:48.768Z,2.15
2022-12-20T18:05:19.518Z,2.85
2022-12-20T18:07:56.927Z,2.25
2022-12-20T18:10:27.554Z,2.13
2022-12-20T18:12:58.467Z,2.67
2022-12-20T18:15:29.321Z,3.35
2022-12-20T18:17:59.789Z,2.83
2022-12-20T18:20:30.415Z,3.03
2022-12-20T18:23:03.503Z,3.10
2022-12-20T18:25:34.018Z,2.40
2022-12-20T18:28:06.442Z,2.75
2022-12-20T18:30:36.894Z,2.20
2022-12-20T18:33:07.371Z,2.85
2022-12-20T18:35:38.056Z,2.60
2022-12-20T18:38:11.161Z,2.13
2022-12-20T18:40:46.989Z,1.30
2022-12-20T18:43:17.543Z,1.88
2022-12-20T18:45:48.034Z,2.22
2022-12-20T18:48:19.938Z,2.60
2022-12-20T18:50:50.325Z,2.83
2022-12-20T18:53:24.491Z,2.65
2022-12-20T18:55:54.897Z,2.50
2022-12-20T18:58:25.335Z,3.08
2022-12-20T19:00:59.212Z,2.28
2022-12-20T19:03:30.321Z,1.88
2022-12-20T19:06:01.516Z,2.15
2022-12-20T19:08:34.793Z,3.85
2022-12-20T19:11:10.083Z,2.50
2022-12-20T19:13:41.739Z,2.92
2022-12-20T19:16:15.806Z,2.63
2022-12-20T19:18:47.305Z,2.38
2022-12-20T19:21:20.542Z,1.95
2022-12-20T19:23:55.736Z,1.80
2022-12-20T19:26:28.731Z,2.80
2022-12-20T19:29:00.214Z,3.95
2022-12-20T19:31:32.446Z,4.95
2022-12-20T19:34:05.639Z,4.70
2022-12-20T19:36:40.273Z,3.85
2022-12-20T19:39:17.466Z,3.75
2022-12-20T19:42:21.492Z,4.18
2022-12-20T19:44:43.932Z,4.10
2022-12-20T19:47:14.486Z,3.30
2022-12-20T19:49:45.417Z,2.78
2022-12-20T19:52:29.987Z,4.30
2022-12-20T19:55:03.062Z,2.15
2022-12-20T19:57:33.520Z,2.33
2022-12-20T20:00:08.609Z,2.72
2022-12-20T20:02:42.521Z,2.38
2022-12-20T20:05:15.425Z,3.85
2022-12-20T20:07:46.285Z,4.13
2022-12-20T20:10:19.454Z,3.25
2022-12-20T20:12:50.014Z,3.25
2022-12-20T20:15:20.720Z,3.17
2022-12-20T20:17:51.332Z,5.15
2022-12-20T20:20:22.443Z,2.97
2022-12-20T20:22:53.049Z,2.40
2022-12-20T20:25:26.434Z,4.38
2022-12-20T20:27:56.849Z,3.33
2022-12-20T20:30:27.231Z,2.28
2022-12-20T20:32:57.708Z,2.47
2022-12-20T20:35:28.076Z,1.98
2022-12-20T20:37:58.633Z,3.00
2022-12-20T20:40:32.487Z,2.42
2022-12-20T20:43:03.424Z,2.55
2022-12-20T20:45:33.865Z,1.60
2022-12-20T20:48:06.831Z,1.50
2022-12-20T20:50:37.195Z,2.13
2022-12-20T20:53:07.773Z,3.25
2022-12-20T20:55:43.719Z,1.75
2022-12-20T20:58:14.224Z,1.35
2022-12-20T21:00:44.555Z,1.45
2022-12-20T21:03:15.076Z,1.98
2022-12-20T21:06:29.920Z,1.75
2022-12-20T21:08:37.170Z,2.30
2022-12-20T21:11:12.157Z,1.50
2022-12-20T21:13:42.624Z,1.60
2022-12-20T21:16:16.229Z,2.40
2022-12-20T21:18:46.891Z,2.63
2022-12-20T21:21:17.232Z,3.08
2022-12-20T21:23:49.023Z,1.80
2022-12-20T21:26:23.191Z,1.95
2022-12-20T21:31:23.756Z,1.73
2022-12-20T21:33:54.372Z,2.08
2022-12-20T21:36:25.341Z,1.58
2022-12-20T21:38:58.086Z,1.70
2022-12-20T21:41:32.057Z,2.22
2022-12-20T21:44:03.794Z,2.28
2022-12-20T21:46:34.935Z,1.90
2022-12-20T21:49:05.487Z,2.85
2022-12-20T21:51:35.936Z,2.63
2022-12-20T21:54:07.605Z,2.55
2022-12-20T21:56:40.635Z,1.83
2022-12-20T21:59:13.184Z,1.98
2022-12-20T22:01:45.833Z,2.20
2022-12-20T22:04:16.746Z,2.50
2022-12-20T22:06:47.928Z,1.98
2022-12-20T22:09:19.281Z,2.75
2022-12-20T22:11:52.272Z,3.13
2022-12-20T22:14:22.605Z,2.50
2022-12-20T22:16:54.693Z,1.80
2022-12-20T22:19:26.436Z,2.40
2022-12-20T22:21:58.476Z,2.30
2022-12-20T22:24:29.392Z,2.70
2022-12-20T22:27:06.275Z,3.10
2022-12-20T22:29:41.364Z,3.22
2022-12-20T22:32:11.758Z,4.97
2022-12-20T22:34:42.276Z,3.33
2022-12-20T22:37:12.573Z,2.70
2022-12-20T22:39:43.059Z,3.38
2022-12-20T22:42:15.962Z,2.03
2022-12-20T22:44:46.322Z,3.78
2022-12-20T22:47:16.751Z,3.38
2022-12-20T22:49:47.160Z,2.78
2022-12-20T22:52:17.573Z,2.58
2022-12-20T22:54:47.943Z,2.40
2022-12-20T22:57:21.076Z,3.00
2022-12-20T22:59:51.484Z,2.25
2022-12-20T23:02:23.361Z,1.90
2022-12-20T23:04:54.316Z,2.00
2022-12-20T23:07:25.492Z,2.03
2022-12-20T23:09:55.839Z,2.10
2022-12-20T23:12:41.318Z,2.05
2022-12-20T23:15:26.569Z,1.75
2022-12-20T23:17:56.921Z,1.98
2022-12-20T23:20:40.002Z,3.15
2022-12-20T23:23:10.887Z,3.40
2022-12-20T23:25:42.025Z,2.15
2022-12-20T23:28:14.966Z,3.15
2022-12-20T23:30:45.393Z,2.60
2022-12-20T23:33:15.742Z,2.88
2022-12-20T23:35:46.350Z,3.03
2022-12-20T23:38:16.713Z,2.60
2022-12-20T23:40:47.105Z,2.58
2022-12-20T23:43:20.222Z,3.72
2022-12-20T23:45:50.705Z,1.70
2022-12-20T23:48:21.145Z,2.70
2022-12-20T23:50:58.362Z,3.95
2022-12-20T23:53:29.088Z,3.40
2022-12-20T23:56:01.490Z,4.75
2022-12-20T23:58:35.198Z,4.88
